This is the latest recevied weather packets stored in our database for station/object DL1AIE-13. If no packets are shown the sender has not sent any weather packets the latest 10 day(s).
| Time | Temp. | Humidity | Pressure | Rain* | Wind** | Luminosity | Snow |
|---|---|---|---|---|---|---|---|
| 1777782449 | 10° C | 83% | 1015.2 hPa | 0 mm | - | - | - |
| 1777781846 | 10.56° C | 78% | 1015.2 hPa | 0 mm | - | - | - |
| 1777781242 | 10.56° C | 81% | 1015.2 hPa | 0 mm | - | - | - |
| 1777780638 | 10° C | 82% | 1014.9 hPa | 0 mm | - | - | - |
| 1777780055 | 9.44° C | 84% | 1015.1 hPa | 0 mm | - | - | - |
| 1777779451 | 10° C | 83% | 1015.1 hPa | 0 mm | - | - | - |
| 1777778848 | 10° C | 84% | 1015.2 hPa | 0 mm | - | - | - |
| 1777778245 | 10° C | 83% | 1015.2 hPa | 0 mm | - | - | - |
| 1777777641 | 10° C | 84% | 1015.2 hPa | 0 mm | - | - | - |
| 1777777038 | 10° C | 85% | 1015.3 hPa | 0 mm | - | - | - |
| 1777776454 | 9.44° C | 87% | 1015.3 hPa | 0 mm | - | - | - |
| 1777775851 | 9.44° C | 87% | 1015.4 hPa | 0 mm | - | - | - |
| 1777775247 | 9.44° C | 87% | 1015.5 hPa | 0 mm | - | - | - |
| 1777774644 | 10° C | 86% | 1015.4 hPa | 0 mm | - | - | - |
| 1777774040 | 10° C | 84% | 1015.4 hPa | 0 mm | - | - | - |
| 1777773436 | 10.56° C | 82% | 1015.5 hPa | 0 mm | - | - | - |
| 1777772853 | 10.56° C | 81% | 1015.5 hPa | 0 mm | - | - | - |
| 1777772249 | 10.56° C | 82% | 1015.4 hPa | 0 mm | - | - | - |
| 1777771646 | 11.11° C | 81% | 1015.5 hPa | 0 mm | - | - | - |
| 1777771043 | 11.11° C | 79% | 1015.4 hPa | 0 mm | - | - | - |
| 1777770439 | 11.11° C | 79% | 1015.4 hPa | 0 mm | - | - | - |
| 1777769836 | 12.22° C | 75% | 1015.6 hPa | 0 mm | - | - | - |
| 1777769252 | 12.78° C | 73% | 1015.5 hPa | 0 mm | - | - | - |
| 1777768649 | 12.22° C | 77% | 1015.6 hPa | 0 mm | - | - | - |
| 1777768045 | 12.22° C | 76% | 1015.7 hPa | 0 mm | - | - | - |
* Rain latest hour (hover to see other rain measurements)
** Current wind speed in m/s (hover to see current wind gust speed)